Time;durP1;ratioP1;P1;durP2;ratioP2;P2;SDS_P1;SDS_P2;PMS_P1;PMS_P2;Temp;Humidity;BMP_temperature;BMP_pressure;BME280_temperature;BME280_humidity;BME280_pressure;Samples;Min_cycle;Max_cycle;Signal;HPM_P1;HPM_P2
2021/06/10 00:00:49;;;;;;;1999.90;999.90;;;19.50;99.90;;;;;;5097866;28;20771;-82
2021/06/10 00:03:16;;;;;;;1999.90;999.90;;;19.60;99.90;;;;;;5097911;28;20415;-82
2021/06/10 00:05:42;;;;;;;1999.90;999.90;;;19.60;99.90;;;;;;5096884;28;20400;-82
2021/06/10 00:08:10;;;;;;;1999.90;999.90;;;19.50;99.90;;;;;;5078794;28;20822;-82
2021/06/10 00:10:38;;;;;;;1999.90;999.90;;;19.40;99.90;;;;;;5165840;22;20478;-86
2021/06/10 00:13:04;;;;;;;1999.90;999.90;;;19.30;99.90;;;;;;5100601;28;20391;-84
2021/06/10 00:15:32;;;;;;;1999.90;999.90;;;19.30;99.90;;;;;;5100489;28;20803;-84
2021/06/10 00:17:59;;;;;;;1999.90;999.90;;;19.20;99.90;;;;;;5099935;28;20172;-84
2021/06/10 00:20:27;;;;;;;1999.90;999.90;;;19.10;99.90;;;;;;5100310;28;20415;-84
2021/06/10 00:23:01;;;;;;;1999.90;999.90;;;19.10;99.90;;;;;;5100325;28;20761;-84
2021/06/10 00:25:28;;;;;;;1999.90;999.90;;;19.10;99.90;;;;;;5082926;28;20408;-84
2021/06/10 00:27:54;;;;;;;1999.90;999.90;;;19.10;99.90;;;;;;5082185;28;20453;-84
2021/06/10 00:30:20;;;;;;;1999.90;999.90;;;19.10;99.90;;;;;;5100123;28;20403;-84
2021/06/10 00:32:49;;;;;;;1999.90;999.90;;;19.20;99.90;;;;;;5100282;28;20394;-84
2021/06/10 00:35:16;;;;;;;1999.90;999.90;;;19.20;99.90;;;;;;5100439;28;20528;-84
2021/06/10 00:37:41;;;;;;;1999.90;999.90;;;19.20;99.90;;;;;;5100331;28;20398;-84
2021/06/10 00:40:10;;;;;;;1999.90;999.90;;;19.30;99.90;;;;;;5099971;28;20424;-84
2021/06/10 00:42:36;;;;;;;1999.90;999.90;;;19.20;99.90;;;;;;5100040;28;20601;-84
2021/06/10 00:45:06;;;;;;;1999.90;999.90;;;19.20;99.90;;;;;;5100562;28;20773;-84
2021/06/10 00:47:32;;;;;;;1999.90;999.90;;;19.20;99.90;;;;;;5098641;28;20481;-84
2021/06/10 00:49:57;;;;;;;1999.90;999.90;;;19.10;99.90;;;;;;5100404;28;20834;-84
2021/06/10 00:52:23;;;;;;;1999.90;999.90;;;19.20;99.90;;;;;;5100091;28;20163;-84
2021/06/10 00:54:49;;;;;;;1999.90;999.90;;;19.10;99.90;;;;;;5100091;28;20171;-84
2021/06/10 00:57:15;;;;;;;1999.90;999.90;;;19.10;99.90;;;;;;5099467;28;20155;-84
2021/06/10 00:59:41;;;;;;;1999.90;999.90;;;19.00;99.90;;;;;;5099614;28;20993;-84
2021/06/10 01:02:06;;;;;;;1999.90;999.90;;;19.00;99.90;;;;;;5099290;28;20159;-84
2021/06/10 01:04:32;;;;;;;1999.90;999.90;;;18.90;99.90;;;;;;5081134;28;20617;-84
2021/06/10 01:07:18;;;;;;;1999.90;999.90;;;18.90;99.90;;;;;;5099296;28;20238;-84
2021/06/10 01:10:01;;;;;;;1999.90;999.90;;;18.80;99.90;;;;;;5099034;28;20179;-84
2021/06/10 01:12:52;;;;;;;1999.90;999.90;;;18.70;99.90;;;;;;5079780;28;20496;-84
2021/06/10 01:15:21;;;;;;;1999.90;999.90;;;18.70;99.90;;;;;;5097415;28;20423;-84
2021/06/10 01:17:48;;;;;;;1999.90;999.90;;;18.60;99.90;;;;;;5099007;28;20401;-84
2021/06/10 01:20:19;;;;;;;1999.90;999.90;;;18.50;99.90;;;;;;5080518;28;20426;-84
2021/06/10 01:22:53;;;;;;;1999.90;999.90;;;18.40;99.90;;;;;;5099612;28;20715;-84
2021/06/10 01:25:34;;;;;;;1999.90;999.90;;;18.40;99.90;;;;;;5100516;28;20963;-84
2021/06/10 01:28:11;;;;;;;1999.90;999.90;;;18.30;99.90;;;;;;5082521;28;20438;-84
2021/06/10 01:30:42;;;;;;;1999.90;999.90;;;18.20;99.90;;;;;;5082043;28;20436;-84
2021/06/10 01:33:11;;;;;;;1999.90;999.90;;;18.30;99.90;;;;;;5083356;28;20394;-84
2021/06/10 01:35:41;;;;;;;1999.90;999.90;;;18.40;99.90;;;;;;5100145;28;20397;-84
2021/06/10 01:38:09;;;;;;;1999.90;999.90;;;18.40;99.90;;;;;;5081171;28;20462;-84
2021/06/10 01:40:35;;;;;;;1999.90;999.90;;;18.30;99.90;;;;;;5081908;28;20437;-84
2021/06/10 01:43:01;;;;;;;1999.90;999.90;;;18.30;99.90;;;;;;5100160;28;20409;-84
2021/06/10 01:45:27;;;;;;;1999.90;999.90;;;18.30;99.90;;;;;;5081088;28;20401;-84
2021/06/10 01:47:55;;;;;;;1999.90;999.90;;;18.30;99.90;;;;;;5099922;28;20440;-85
2021/06/10 01:50:22;;;;;;;1999.90;999.90;;;18.30;99.90;;;;;;5098249;28;20435;-84
2021/06/10 01:52:49;;;;;;;1999.90;999.90;;;18.30;99.90;;;;;;5098655;28;20402;-84
2021/06/10 01:55:17;;;;;;;1999.90;999.90;;;18.30;99.90;;;;;;5100135;28;20397;-84
2021/06/10 01:57:44;;;;;;;1999.90;999.90;;;18.30;99.90;;;;;;5099899;28;20405;-84
2021/06/10 02:00:14;;;;;;;1999.90;999.90;;;18.30;99.90;;;;;;5099001;28;20438;-84
2021/06/10 02:02:40;;;;;;;1999.90;999.90;;;18.30;99.90;;;;;;5099527;28;20433;-84
2021/06/10 02:05:08;;;;;;;1999.90;999.90;;;18.20;99.90;;;;;;5098835;28;20908;-84
2021/06/10 02:07:39;;;;;;;1999.90;999.90;;;18.00;99.90;;;;;;5098733;28;20469;-84
2021/06/10 02:10:06;;;;;;;1999.90;999.90;;;18.00;99.90;;;;;;5080801;28;20437;-84
2021/06/10 02:12:32;;;;;;;1999.90;999.90;;;17.90;99.90;;;;;;5099392;28;20386;-84
2021/06/10 02:15:07;;;;;;;1999.90;999.90;;;17.80;99.90;;;;;;5098099;28;20795;-84
2021/06/10 02:17:34;;;;;;;1999.90;999.90;;;17.70;99.90;;;;;;5099511;28;20381;-84
2021/06/10 02:20:01;;;;;;;1999.90;999.90;;;17.70;99.90;;;;;;5098643;28;20857;-84
2021/06/10 02:22:33;;;;;;;1999.90;999.90;;;17.70;99.90;;;;;;5098733;28;20401;-84
2021/06/10 02:25:00;;;;;;;1999.90;999.90;;;17.70;99.90;;;;;;5098295;28;20942;-84
2021/06/10 02:27:26;;;;;;;1999.90;999.90;;;17.70;99.90;;;;;;5098575;28;20881;-84
2021/06/10 02:29:51;;;;;;;1999.90;999.90;;;17.70;99.90;;;;;;5097597;28;20444;-84
2021/06/10 02:32:17;;;;;;;1999.90;999.90;;;17.70;99.90;;;;;;5098673;28;20189;-84
2021/06/10 02:34:43;;;;;;;1999.90;999.90;;;17.70;99.90;;;;;;5097899;28;20164;-84
2021/06/10 02:37:11;;;;;;;1999.90;999.90;;;17.60;99.90;;;;;;5097694;28;20181;-84
2021/06/10 02:39:42;;;;;;;1999.90;999.90;;;17.60;99.90;;;;;;5079763;28;20244;-84
2021/06/10 02:42:11;;;;;;;1999.90;999.90;;;17.50;99.90;;;;;;5079308;28;20401;-84
2021/06/10 02:44:36;;;;;;;1999.90;999.90;;;17.50;99.90;;;;;;5097573;28;20757;-84
2021/06/10 02:47:05;;;;;;;1999.90;999.90;;;17.40;99.90;;;;;;5097250;28;20400;-84
2021/06/10 02:49:34;;;;;;;1999.90;999.90;;;17.30;99.90;;;;;;5097093;28;20429;-84
2021/06/10 02:52:04;;;;;;;1999.90;999.90;;;17.20;99.90;;;;;;5097548;28;20425;-84
2021/06/10 02:54:30;;;;;;;1999.90;999.90;;;17.20;99.90;;;;;;5097215;28;20463;-84
2021/06/10 02:56:57;;;;;;;1999.90;999.90;;;17.20;99.90;;;;;;5097541;28;20447;-84
2021/06/10 02:59:24;;;;;;;1999.90;999.90;;;17.10;99.90;;;;;;5097191;28;20781;-84
2021/06/10 03:01:52;;;;;;;1999.90;999.90;;;17.10;99.90;;;;;;5097816;28;20402;-84
2021/06/10 03:04:21;;;;;;;1999.90;999.90;;;17.10;99.90;;;;;;5096860;28;20413;-84
2021/06/10 03:06:47;;;;;;;1999.90;999.90;;;17.30;99.90;;;;;;5097066;28;20390;-84
2021/06/10 03:09:14;;;;;;;1999.90;999.90;;;17.40;99.90;;;;;;5097318;28;20457;-84
2021/06/10 03:11:42;;;;;;;1999.90;999.90;;;17.30;99.90;;;;;;5100815;28;20417;-84
2021/06/10 03:14:09;;;;;;;1999.90;999.90;;;17.40;99.90;;;;;;5101278;28;20429;-84
2021/06/10 03:16:41;;;;;;;1999.90;999.90;;;17.50;99.90;;;;;;5100345;28;20496;-84
2021/06/10 03:19:08;;;;;;;1999.90;999.90;;;17.50;99.90;;;;;;5100199;28;20938;-83
2021/06/10 03:21:35;;;;;;;1999.90;999.90;;;17.50;99.90;;;;;;5100570;28;20924;-83
2021/06/10 03:24:01;;;;;;;1999.90;999.90;;;17.40;99.90;;;;;;5082519;28;20409;-84
2021/06/10 03:26:28;;;;;;;1999.90;999.90;;;17.50;99.90;;;;;;5100907;28;20412;-84
2021/06/10 03:28:54;;;;;;;1999.90;999.90;;;17.60;99.90;;;;;;5099895;28;20477;-84
2021/06/10 03:31:21;;;;;;;1999.90;999.90;;;17.50;99.90;;;;;;5082512;28;20480;-84
2021/06/10 03:33:51;;;;;;;1999.90;999.90;;;17.50;99.90;;;;;;5082171;28;20405;-84
2021/06/10 03:36:18;;;;;;;1999.90;999.90;;;17.60;99.90;;;;;;5100536;28;20412;-84
2021/06/10 03:38:45;;;;;;;1999.90;999.90;;;17.50;99.90;;;;;;5100427;28;20426;-84
2021/06/10 03:41:12;;;;;;;1999.90;999.90;;;17.60;99.90;;;;;;5100666;28;20476;-84
2021/06/10 03:43:38;;;;;;;1999.90;999.90;;;17.60;99.90;;;;;;5100345;28;20497;-84
2021/06/10 03:46:08;;;;;;;1999.90;999.90;;;17.60;99.90;;;;;;5100653;28;20398;-84
2021/06/10 03:48:38;;;;;;;1999.90;999.90;;;17.50;99.90;;;;;;5099795;28;20491;-84
2021/06/10 03:51:12;;;;;;;1999.90;999.90;;;17.60;99.90;;;;;;5101019;28;20385;-84
2021/06/10 03:53:38;;;;;;;1999.90;999.90;;;17.50;99.90;;;;;;5100756;28;20935;-84
2021/06/10 03:56:04;;;;;;;1999.90;999.90;;;17.60;99.90;;;;;;5065839;28;20405;-84
2021/06/10 03:58:31;;;;;;;1999.90;999.90;;;17.60;99.90;;;;;;5082149;28;20696;-84
2021/06/10 04:00:57;;;;;;;1999.90;999.90;;;17.50;99.90;;;;;;5099230;28;20397;-84
2021/06/10 04:03:22;;;;;;;1999.90;999.90;;;17.50;99.90;;;;;;5098889;28;20470;-84
2021/06/10 04:05:48;;;;;;;1999.90;999.90;;;17.50;99.90;;;;;;5100858;28;20530;-84
2021/06/10 04:08:14;;;;;;;1999.90;999.90;;;17.50;99.90;;;;;;5100918;28;20199;-84
2021/06/10 04:10:39;;;;;;;1999.90;999.90;;;17.70;99.90;;;;;;5099757;28;20641;-84
2021/06/10 04:13:05;;;;;;;1999.90;999.90;;;17.70;99.90;;;;;;5099105;28;20166;-84
2021/06/10 04:15:31;;;;;;;1999.90;999.90;;;17.60;99.90;;;;;;5099369;28;20653;-84
2021/06/10 04:17:56;;;;;;;1999.90;999.90;;;17.70;99.90;;;;;;5100476;28;20171;-84
2021/06/10 04:20:22;;;;;;;1999.90;999.90;;;17.60;99.90;;;;;;5100404;28;20557;-84
2021/06/10 04:22:48;;;;;;;1999.90;999.90;;;17.40;99.90;;;;;;5100794;28;20172;-84
2021/06/10 04:25:14;;;;;;;1999.90;999.90;;;17.40;99.90;;;;;;5101037;28;20201;-84
2021/06/10 04:27:40;;;;;;;1999.90;999.90;;;17.50;99.90;;;;;;5100549;28;20265;-84
2021/06/10 04:30:11;;;;;;;1999.90;999.90;;;17.50;99.90;;;;;;5100215;28;20417;-84
2021/06/10 04:32:37;;;;;;;1999.90;999.90;;;17.30;99.90;;;;;;5099944;28;20401;-84
2021/06/10 04:35:07;;;;;;;1999.90;999.90;;;17.40;99.90;;;;;;5100985;28;20401;-84
2021/06/10 04:37:33;;;;;;;1999.90;999.90;;;17.50;99.90;;;;;;5100487;28;20416;-84
2021/06/10 04:39:58;;;;;;;1999.90;999.90;;;17.50;99.90;;;;;;5099991;28;20425;-84
2021/06/10 04:42:24;;;;;;;1999.90;999.90;;;17.80;99.90;;;;;;5099941;28;20178;-84
2021/06/10 04:44:50;;;;;;;1999.90;999.90;;;17.90;99.90;;;;;;5099757;28;20175;-84
2021/06/10 04:47:16;;;;;;;1999.90;999.90;;;17.90;99.90;;;;;;5099302;28;20175;-84
2021/06/10 04:49:44;;;;;;;1999.90;999.90;;;18.10;99.90;;;;;;5099377;28;20229;-84
2021/06/10 04:52:10;;;;;;;1999.90;999.90;;;18.20;99.90;;;;;;5100246;28;20400;-84
2021/06/10 04:54:35;;;;;;;1999.90;999.90;;;18.40;99.90;;;;;;5099168;28;20433;-86
2021/06/10 04:57:02;;;;;;;1999.90;999.90;;;18.60;99.90;;;;;;5099322;28;20433;-84
2021/06/10 04:59:28;;;;;;;1999.90;999.90;;;18.70;99.90;;;;;;5099697;28;20188;-84
2021/06/10 05:01:54;;;;;;;1999.90;999.90;;;18.90;99.90;;;;;;5098850;28;20457;-84
2021/06/10 05:04:19;;;;;;;1999.90;999.90;;;19.10;99.90;;;;;;5099431;28;20171;-84
2021/06/10 05:06:45;;;;;;;1999.90;999.90;;;19.20;99.90;;;;;;5098626;28;20172;-84
2021/06/10 05:09:11;;;;;;;1999.90;999.90;;;19.30;99.90;;;;;;5098886;28;20674;-84
2021/06/10 05:11:39;;;;;;;1999.90;999.90;;;19.40;99.90;;;;;;5100102;28;20171;-84
2021/06/10 05:14:05;;;;;;;1999.90;999.90;;;19.60;99.90;;;;;;5082504;28;20163;-84
2021/06/10 05:16:31;;;;;;;1999.90;999.90;;;19.70;99.90;;;;;;5099231;28;20904;-84
2021/06/10 05:18:56;;;;;;;1999.90;999.90;;;19.70;99.90;;;;;;5081394;28;20574;-84
2021/06/10 05:21:22;;;;;;;1999.90;999.90;;;19.80;99.90;;;;;;5081779;28;20667;-84
2021/06/10 05:23:48;;;;;;;1999.90;999.90;;;19.90;99.90;;;;;;5100283;28;20168;-84
2021/06/10 05:26:13;;;;;;;1999.90;999.90;;;19.90;99.90;;;;;;5099215;28;20175;-84
2021/06/10 05:28:39;;;;;;;1999.90;999.90;;;19.90;99.90;;;;;;5099649;28;20266;-84
2021/06/10 05:31:08;;;;;;;1999.90;999.90;;;20.00;99.90;;;;;;5099703;28;20161;-84
2021/06/10 05:33:35;;;;;;;1999.90;999.90;;;20.00;99.90;;;;;;5097107;28;20205;-84
2021/06/10 05:36:00;;;;;;;1999.90;999.90;;;20.00;99.90;;;;;;5098652;28;20472;-84
2021/06/10 05:38:26;;;;;;;1999.90;999.90;;;20.00;99.90;;;;;;5098906;28;20433;-84
2021/06/10 05:40:52;;;;;;;1999.90;999.90;;;19.90;99.90;;;;;;5098795;28;20401;-84
2021/06/10 05:43:18;;;;;;;1999.90;999.90;;;19.80;99.90;;;;;;5098527;28;20906;-84
2021/06/10 05:45:44;;;;;;;1999.90;999.90;;;19.70;99.90;;;;;;5098350;28;20176;-84
2021/06/10 05:48:11;;;;;;;1999.90;999.90;;;19.60;99.90;;;;;;5080153;28;20464;-84
2021/06/10 05:50:37;;;;;;;1999.90;999.90;;;19.60;99.90;;;;;;5098935;28;20163;-84
2021/06/10 05:53:03;;;;;;;1999.90;999.90;;;19.60;99.90;;;;;;5079970;28;20443;-84
2021/06/10 05:55:29;;;;;;;1999.90;999.90;;;19.70;99.90;;;;;;5099285;28;20406;-84
2021/06/10 05:57:55;;;;;;;1999.90;999.90;;;19.70;99.90;;;;;;5098269;28;20411;-84
2021/06/10 06:00:21;;;;;;;1999.90;999.90;;;19.70;99.90;;;;;;5098559;28;20174;-84
2021/06/10 06:02:49;;;;;;;1999.90;999.90;;;19.70;99.90;;;;;;5098519;28;20161;-84
2021/06/10 06:05:15;;;;;;;1999.90;999.90;;;19.70;99.90;;;;;;5098494;28;20401;-84
2021/06/10 06:07:40;;;;;;;1999.90;999.90;;;19.70;99.90;;;;;;5097804;28;20471;-84
2021/06/10 06:10:07;;;;;;;1999.90;999.90;;;19.80;99.90;;;;;;5097839;28;20175;-84
2021/06/10 06:12:33;;;;;;;1999.90;999.90;;;19.80;99.90;;;;;;5097508;28;20152;-84
2021/06/10 06:14:59;;;;;;;1999.90;999.90;;;19.80;99.90;;;;;;5097854;28;20433;-84
2021/06/10 06:17:25;;;;;;;1999.90;999.90;;;19.80;99.90;;;;;;5080425;28;20777;-84
2021/06/10 06:19:57;;;;;;;1999.90;999.90;;;19.80;99.90;;;;;;5098860;28;20693;-84
2021/06/10 06:22:23;;;;;;;1999.90;999.90;;;20.00;99.90;;;;;;5098542;28;20235;-84
2021/06/10 06:24:49;;;;;;;1999.90;999.90;;;20.10;99.90;;;;;;5098391;28;20425;-84
2021/06/10 06:27:18;;;;;;;1999.90;999.90;;;20.10;99.90;;;;;;5080772;28;20446;-84
2021/06/10 06:29:44;;;;;;;1999.90;999.90;;;20.00;99.90;;;;;;5080143;28;20183;-84
2021/06/10 06:32:09;;;;;;;1999.90;999.90;;;20.10;99.90;;;;;;5097863;28;20430;-84
2021/06/10 06:34:35;;;;;;;1999.90;999.90;;;20.20;99.90;;;;;;5097905;28;20396;-84
2021/06/10 06:37:01;;;;;;;1999.90;999.90;;;20.30;99.90;;;;;;5098113;28;20645;-84
2021/06/10 06:39:26;;;;;;;1999.90;999.90;;;20.40;99.90;;;;;;5097618;28;20187;-84
2021/06/10 06:41:52;;;;;;;1999.90;999.90;;;20.40;99.90;;;;;;5097955;28;20164;-84
2021/06/10 06:44:18;;;;;;;1999.90;999.90;;;20.40;99.90;;;;;;5080397;28;20168;-84
2021/06/10 06:46:44;;;;;;;1999.90;999.90;;;20.40;99.90;;;;;;5102171;28;20221;-84
2021/06/10 06:49:10;;;;;;;1999.90;999.90;;;20.40;99.90;;;;;;5102294;28;20460;-84
2021/06/10 06:51:35;;;;;;;1999.90;999.90;;;20.40;99.90;;;;;;5102809;28;20401;-84
2021/06/10 06:54:01;;;;;;;1999.90;999.90;;;20.50;99.90;;;;;;5103567;28;20166;-84
2021/06/10 06:56:27;;;;;;;1999.90;999.90;;;20.50;99.90;;;;;;5103031;28;20162;-84
2021/06/10 06:58:53;;;;;;;1999.90;999.90;;;20.50;99.90;;;;;;5103205;28;20599;-84
2021/06/10 07:01:19;;;;;;;1999.90;999.90;;;20.60;99.90;;;;;;5103429;28;20205;-84
2021/06/10 07:03:45;;;;;;;1999.90;999.90;;;20.70;99.90;;;;;;5103690;28;20480;-84
2021/06/10 07:06:11;;;;;;;1999.90;999.90;;;20.70;99.90;;;;;;5103913;28;20489;-84
2021/06/10 07:08:36;;;;;;;1999.90;999.90;;;20.80;99.90;;;;;;5102535;28;20202;-84
2021/06/10 07:11:03;;;;;;;1999.90;999.90;;;20.70;99.90;;;;;;5103831;28;20185;-84
2021/06/10 07:13:28;;;;;;;1999.90;999.90;;;20.70;99.90;;;;;;5102462;28;20212;-84
2021/06/10 07:15:54;;;;;;;1999.90;999.90;;;20.80;99.90;;;;;;5103949;28;20399;-83
2021/06/10 07:18:20;;;;;;;1999.90;999.90;;;20.80;99.90;;;;;;5103568;28;20583;-84
2021/06/10 07:20:46;;;;;;;1999.90;999.90;;;20.90;99.90;;;;;;5103836;28;20600;-84
2021/06/10 07:23:12;;;;;;;1999.90;999.90;;;20.90;99.90;;;;;;5103108;28;20420;-84
2021/06/10 07:25:38;;;;;;;1999.90;999.90;;;21.00;99.90;;;;;;5103829;28;20405;-84
2021/06/10 07:28:09;;;;;;;1999.90;999.90;;;21.10;99.90;;;;;;5086220;28;20682;-85
2021/06/10 07:30:36;;;;;;;1999.90;999.90;;;21.20;99.90;;;;;;5086534;28;20173;-84
2021/06/10 07:33:03;;;;;;;1999.90;999.90;;;21.20;99.90;;;;;;5103917;28;20415;-84
2021/06/10 07:35:30;;;;;;;1999.90;999.90;;;21.20;99.90;;;;;;5103041;28;20944;-84
2021/06/10 07:37:56;;;;;;;1999.90;999.90;;;21.20;99.90;;;;;;5102535;28;20449;-84
2021/06/10 07:40:25;;;;;;;1999.90;999.90;;;21.30;99.90;;;;;;5103206;28;20995;-84
2021/06/10 07:42:51;;;;;;;1999.90;999.90;;;21.30;99.90;;;;;;5103867;28;20920;-84
2021/06/10 07:45:18;;;;;;;1999.90;999.90;;;21.40;99.90;;;;;;5105155;28;20405;-84
2021/06/10 07:47:43;;;;;;;1999.90;999.90;;;21.50;99.90;;;;;;5103568;28;20445;-84
2021/06/10 07:50:10;;;;;;;1999.90;999.90;;;21.50;99.90;;;;;;5103936;28;20514;-84
2021/06/10 07:52:35;;;;;;;1999.90;999.90;;;21.50;99.90;;;;;;5104717;28;20165;-84
2021/06/10 07:55:02;;;;;;;1999.90;999.90;;;21.60;99.90;;;;;;5102179;28;20418;-84
2021/06/10 07:57:28;;;;;;;1999.90;999.90;;;21.60;99.90;;;;;;5102864;28;20164;-84
2021/06/10 07:59:54;;;;;;;1999.90;999.90;;;21.50;99.80;;;;;;5105309;28;20446;-84
2021/06/10 08:02:20;;;;;;;1999.90;999.90;;;21.60;98.90;;;;;;5105289;28;20468;-84
2021/06/10 08:04:46;;;;;;;1999.90;999.90;;;21.60;99.90;;;;;;5106092;28;20241;-84
2021/06/10 08:07:12;;;;;;;1999.90;999.90;;;21.70;99.90;;;;;;5087858;28;20410;-84
2021/06/10 08:09:38;;;;;;;1999.90;999.90;;;21.80;98.30;;;;;;5104822;28;20186;-84
2021/06/10 08:12:04;;;;;;;1999.90;999.90;;;21.90;99.00;;;;;;5105905;28;20205;-84
2021/06/10 08:14:29;;;;;;;1999.90;999.90;;;22.00;97.80;;;;;;5106000;28;20160;-84
2021/06/10 08:16:55;;;;;;;1999.90;999.90;;;22.10;99.90;;;;;;5099506;28;20476;-85
2021/06/10 08:19:21;;;;;;;1999.90;999.90;;;22.10;97.60;;;;;;5080262;28;20199;-85
2021/06/10 08:21:47;;;;;;;1999.90;999.90;;;22.20;95.70;;;;;;5100271;28;20405;-85
2021/06/10 08:24:14;;;;;;;1999.90;999.90;;;22.20;96.00;;;;;;5099264;28;20200;-85
2021/06/10 08:26:43;;;;;;;1999.90;999.90;;;22.30;97.30;;;;;;5081787;28;20416;-85
2021/06/10 08:29:09;;;;;;;1999.90;999.90;;;22.40;93.50;;;;;;5098886;28;20457;-84
2021/06/10 08:31:34;;;;;;;1999.90;999.90;;;22.40;94.50;;;;;;5080826;28;20420;-84
2021/06/10 08:34:00;;;;;;;1999.90;999.90;;;22.50;94.30;;;;;;5099849;28;20437;-85
2021/06/10 08:36:26;;;;;;;1999.90;999.90;;;22.60;95.00;;;;;;5099197;28;20171;-84
2021/06/10 08:38:52;;;;;;;1999.90;999.90;;;22.70;90.70;;;;;;5097953;28;20271;-85
2021/06/10 08:41:18;;;;;;;1999.90;999.90;;;22.70;89.10;;;;;;5080280;28;20672;-85
2021/06/10 08:43:45;;;;;;;1999.90;999.90;;;22.80;91.80;;;;;;5100975;28;20212;-85
2021/06/10 08:46:12;;;;;;;1999.90;999.90;;;22.80;84.90;;;;;;5098525;28;20414;-85
2021/06/10 08:48:42;;;;;;;1999.90;999.90;;;22.90;91.00;;;;;;5098169;28;20468;-85
2021/06/10 08:51:15;;;;;;;1999.90;999.90;;;23.00;89.30;;;;;;5099322;28;20397;-85
2021/06/10 08:53:41;;;;;;;1999.90;999.90;;;23.10;91.20;;;;;;5101629;28;20378;-85
2021/06/10 08:56:07;;;;;;;1999.90;999.90;;;23.10;80.70;;;;;;5097914;28;20416;-85
2021/06/10 08:58:34;;;;;;;1999.90;999.90;;;23.20;74.20;;;;;;5097943;28;20437;-85
2021/06/10 09:01:01;;;;;;;1999.90;999.90;;;23.20;77.20;;;;;;5096675;28;20414;-85
2021/06/10 09:03:32;;;;;;;1999.90;999.90;;;23.30;81.10;;;;;;5096937;28;20409;-85
2021/06/10 09:06:08;;;;;;;1999.90;999.90;;;23.40;66.10;;;;;;5097968;28;20390;-85
2021/06/10 09:08:37;;;;;;;1999.90;999.90;;;23.50;59.20;;;;;;5095884;28;20539;-85
2021/06/10 09:11:15;;;;;;;1999.90;999.90;;;23.60;63.20;;;;;;5096723;28;20853;-85
2021/06/10 09:13:50;;;;;;;1999.90;999.90;;;23.80;67.60;;;;;;5096028;28;20393;-85
2021/06/10 09:16:33;;;;;;;1999.90;999.90;;;23.80;49.50;;;;;;5096152;28;20425;-85
2021/06/10 09:19:02;;;;;;;1999.90;999.90;;;24.00;46.50;;;;;;5095875;28;20985;-85
2021/06/10 09:21:33;;;;;;;1999.90;999.90;;;24.10;39.00;;;;;;5095804;28;20405;-85
2021/06/10 09:24:27;;;;;;;1999.90;999.90;;;24.20;51.10;;;;;;5096028;28;20500;-85
2021/06/10 09:27:05;;;;;;;1999.90;999.90;;;24.30;46.90;;;;;;5085907;28;20613;-85
2021/06/10 09:29:49;;;;;;;1999.90;999.90;;;24.50;43.70;;;;;;5096469;28;20472;-85
2021/06/10 09:32:19;;;;;;;1999.90;999.90;;;24.60;47.90;;;;;;5095610;28;20389;-85
2021/06/10 09:34:57;;;;;;;1999.90;999.90;;;24.80;44.00;;;;;;5096710;28;20409;-85
2021/06/10 09:37:33;;;;;;;1999.90;999.90;;;24.90;39.10;;;;;;5079311;28;20397;-85
2021/06/10 09:40:00;;;;;;;1999.90;999.90;;;25.00;46.30;;;;;;5097060;28;20437;-85
2021/06/10 09:42:28;;;;;;;1999.90;999.90;;;25.20;51.20;;;;;;5095923;28;20410;-85
2021/06/10 09:45:01;;;;;;;1999.90;999.90;;;25.40;39.90;;;;;;5095958;28;20906;-85
2021/06/10 09:47:40;;;;;;;1999.90;999.90;;;25.60;34.50;;;;;;5077652;28;20393;-85
2021/06/10 09:50:23;;;;;;;1999.90;999.90;;;25.70;21.20;;;;;;5095775;28;20450;-84
2021/06/10 09:53:00;;;;;;;1999.90;999.90;;;25.80;16.90;;;;;;5095524;28;20395;-85
2021/06/10 09:55:27;;;;;;;1999.90;999.90;;;25.70;11.50;;;;;;5093682;28;20448;-85
2021/06/10 09:57:55;;;;;;;1999.90;999.90;;;25.80;10.00;;;;;;5095200;28;20403;-85
2021/06/10 10:00:25;;;;;;;1999.90;999.90;;;25.90;6.00;;;;;;5094965;28;20445;-85
2021/06/10 10:02:51;;;;;;;1999.90;999.90;;;26.00;4.40;;;;;;5094541;28;20390;-85
2021/06/10 10:05:23;;;;;;;1999.90;999.90;;;26.10;8.90;;;;;;5095142;28;20413;-85
2021/06/10 10:07:50;;;;;;;1999.90;999.90;;;26.40;10.40;;;;;;5094609;28;20181;-85
2021/06/10 10:10:16;;;;;;;1999.90;999.90;;;26.70;8.70;;;;;;5075936;28;20442;-85
2021/06/10 10:12:45;;;;;;;1999.90;999.90;;;27.00;5.40;;;;;;5095363;28;20403;-85
2021/06/10 10:15:13;;;;;;;1999.90;999.90;;;27.10;1.00;;;;;;5060424;28;20410;-85
2021/06/10 10:17:39;;;;;;;1999.90;999.90;;;27.20;1.00;;;;;;5093663;28;20417;-85
2021/06/10 10:20:07;;;;;;;1999.90;999.90;;;27.30;1.00;;;;;;5092038;28;20441;-85
2021/06/10 10:22:35;;;;;;;1999.90;999.90;;;27.20;5.00;;;;;;5092123;28;20409;-85
2021/06/10 10:25:02;;;;;;;1999.90;999.90;;;27.20;1.00;;;;;;5093695;28;20500;-85
2021/06/10 10:27:28;;;;;;;1999.90;999.90;;;27.30;2.50;;;;;;5093642;28;20405;-85
2021/06/10 10:29:55;;;;;;;1999.90;999.90;;;27.40;1.00;;;;;;5075197;28;20774;-85
2021/06/10 10:32:28;;;;;;;1999.90;999.90;;;27.40;1.00;;;;;;5093495;28;20398;-85
2021/06/10 10:34:54;;;;;;;1999.90;999.90;;;27.40;1.00;;;;;;5093816;28;20450;-85
2021/06/10 10:37:22;;;;;;;1999.90;999.90;;;27.50;1.00;;;;;;5075429;28;20960;-85
2021/06/10 10:39:50;;;;;;;1999.90;999.90;;;27.70;1.00;;;;;;5093802;28;20596;-85
2021/06/10 10:42:36;;;;;;;1999.90;999.90;;;27.70;1.00;;;;;;5094006;28;20404;-85
2021/06/10 10:45:12;;;;;;;1999.90;999.90;;;27.80;1.00;;;;;;5094042;28;20472;-85
2021/06/10 10:47:44;;;;;;;1999.90;999.90;;;27.80;1.00;;;;;;5093616;28;20451;-85
2021/06/10 10:50:17;;;;;;;1999.90;999.90;;;27.70;1.00;;;;;;5075666;28;20432;-85
2021/06/10 10:52:54;;;;;;;1999.90;999.90;;;27.50;1.00;;;;;;5093476;28;20401;-85
2021/06/10 10:55:28;;;;;;;1999.90;999.90;;;27.50;1.00;;;;;;5093894;28;20436;-85
2021/06/10 10:58:02;;;;;;;1999.90;999.90;;;27.70;1.00;;;;;;5093750;28;20393;-85
2021/06/10 11:00:48;;;;;;;1999.90;999.90;;;27.80;1.00;;;;;;5093456;28;20989;-85
2021/06/10 11:03:17;;;;;;;1999.90;999.90;;;27.80;1.00;;;;;;5093100;28;20408;-86
2021/06/10 11:05:43;;;;;;;1999.90;999.90;;;27.90;1.00;;;;;;5093426;28;20416;-85
2021/06/10 11:08:09;;;;;;;1999.90;999.90;;;28.20;1.00;;;;;;5075710;28;20459;-85
2021/06/10 11:10:49;;;;;;;1999.90;999.90;;;28.50;1.00;;;;;;5093241;28;20417;-85
2021/06/10 11:13:16;;;;;;;1999.90;999.90;;;28.70;1.00;;;;;;5075315;28;20397;-85
2021/06/10 11:15:51;;;;;;;1999.90;999.90;;;28.90;1.00;;;;;;5093157;28;20859;-85
2021/06/10 11:18:43;;;;;;;1999.90;999.90;;;28.80;1.00;;;;;;5093022;28;20481;-85
2021/06/10 11:21:28;;;;;;;1999.90;999.90;;;28.70;1.00;;;;;;5092820;28;20762;-85
2021/06/10 11:24:29;;;;;;;1999.90;999.90;;;28.90;1.00;;;;;;5092990;28;20393;-85
2021/06/10 11:27:03;;;;;;;1999.90;999.90;;;28.40;1.00;;;;;;5011339;28;20448;-85
2021/06/10 11:29:30;;;;;;;1999.90;999.90;;;27.70;1.00;;;;;;5081068;28;20468;-86
2021/06/10 11:32:18;;;;;;;1999.90;999.90;;;27.60;1.00;;;;;;5094221;28;20405;-85
2021/06/10 11:34:49;;;;;;;1999.90;999.90;;;27.60;1.00;;;;;;5078271;28;20436;-85
2021/06/10 11:37:22;;;;;;;1999.90;999.90;;;27.50;1.00;;;;;;5096622;28;20421;-86
2021/06/10 11:39:49;;;;;;;1999.90;999.90;;;27.80;1.00;;;;;;5096259;28;20429;-85
2021/06/10 11:42:14;;;;;;;1999.90;999.90;;;28.20;1.00;;;;;;5096630;28;20756;-85
2021/06/10 11:44:45;;;;;;;1999.90;999.90;;;28.30;1.00;;;;;;5077962;28;20409;-85
2021/06/10 11:47:25;;;;;;;1999.90;999.90;;;28.30;1.00;;;;;;5096071;28;20650;-85
2021/06/10 11:49:51;;;;;;;1999.90;999.90;;;28.50;1.00;;;;;;5096195;28;20777;-85
2021/06/10 11:52:17;;;;;;;1999.90;999.90;;;28.70;1.00;;;;;;5094713;28;20413;-85
2021/06/10 11:55:09;;;;;;;1999.90;999.90;;;29.00;1.00;;;;;;5096463;28;20398;-85
2021/06/10 11:57:34;;;;;;;1999.90;999.90;;;29.50;1.00;;;;;;5085441;28;20202;-85
2021/06/10 12:00:11;;;;;;;1999.90;999.90;;;29.10;1.00;;;;;;5097411;28;20413;-84
2021/06/10 12:02:41;;;;;;;1999.90;999.90;;;29.30;1.00;;;;;;5097417;28;20492;-84
2021/06/10 12:05:09;;;;;;;1999.90;999.90;;;29.50;1.00;;;;;;5097466;28;20401;-85
2021/06/10 12:07:35;;;;;;;1999.90;999.90;;;29.50;1.00;;;;;;5099116;28;20470;-85